logo liguriameteo

Diretta Meteo Gela, Italiasabato 20 aprile ore 17:15

Mappa
Sereno 16 °C Sereno 24 Ore: T.min 9 T.max 17
Ponente Ovest Km/h 27.8 Punto di rugiada: 10 °C Umidità: 67% Visibilità: 0 Km
Il sole sorge alle: 06:19 Il sole tramonta alle: 19:43
20 Aprile 2024 17:15 tempo osservato: Sereno Sereno 16 67 1012 vento: Nord O 27.8
20 Aprile 2024 17:06 tempo osservato: Sereno Sereno 16 67 1012 vento: Nord O 27.8
20 Aprile 2024 16:55 tempo osservato: Sereno Sereno 16 67 1012 vento: Nord O 27.8
20 Aprile 2024 16:15 tempo osservato: Sereno Sereno 17 59 1012 vento: Nord O 33.3
20 Aprile 2024 16:06 tempo osservato: Sereno Sereno 17 59 1012 vento: Nord O 29.6
20 Aprile 2024 15:55 tempo osservato: Sereno Sereno 17 59 1012 vento: Nord O 31.5
20 Aprile 2024 14:55 tempo osservato: Sereno Sereno 17 59 1013 vento: Nord O 27.8
20 Aprile 2024 13:55 tempo osservato: Sereno Sereno 17 67 1013 vento: Nord O 29.6
20 Aprile 2024 12:55 tempo osservato: Sereno Sereno 17 67 1014 vento: Nord O/SO 16.7
20 Aprile 2024 11:55 tempo osservato: Sereno Sereno 17 63 1014 vento: Nord O 24
20 Aprile 2024 10:55 tempo osservato: Sereno Sereno 16 67 1014 vento: Nord O 20.3
20 Aprile 2024 09:55 tempo osservato: Sereno Sereno 14 62 1015 vento: Nord SO 7.4
20 Aprile 2024 08:55 tempo osservato: Sereno Sereno 13 58 1015 vento: Nord NO 7.4
20 Aprile 2024 07:55 tempo osservato: Sereno Sereno 10 71 1014 vento: Nord N 1.8
20 Aprile 2024 06:55 tempo osservato: Sereno Sereno 9 70 1014 vento: Nord N 5.5
20 Aprile 2024 05:55 tempo osservato: Sereno Sereno 10 66 1014 vento: Nord N 5.5
20 Aprile 2024 04:55 tempo osservato: Sereno Sereno 9 75 1014 vento: Nord E/NE 7.4
20 Aprile 2024 03:55 tempo osservato: Sereno Sereno 10 66 1014 vento: Nord NE 7.4
20 Aprile 2024 02:55 tempo osservato: Sereno Sereno 10 71 1015 vento: Nord N 5.5
20 Aprile 2024 01:55 tempo osservato: Sereno Sereno 12 62 1015 vento: Nord O/NO 9.3
20 Aprile 2024 00:55 tempo osservato: Sereno Sereno 13 62 1015 vento: Nord N 5.5
19 Aprile 2024 23:55 tempo osservato: Sereno Sereno 13 62 1015 vento: Nord N 5.5
19 Aprile 2024 22:55 tempo osservato: Sereno Sereno 13 62 1015 vento: Nord NO 11.1
19 Aprile 2024 21:55 tempo osservato: Sereno Sereno 13 58 1014 vento: Nord NO 13
19 Aprile 2024 20:55 tempo osservato: Sereno Sereno 14 58 1013 vento: Nord N 13
19 Aprile 2024 19:55 tempo osservato: Sereno Sereno 14 54 1012 vento: Nord N 16.7
19 Aprile 2024 18:55 tempo osservato: Sereno Sereno 15 51 1012 vento: Nord N/NO 13
19 Aprile 2024 17:55 tempo osservato: Sereno Sereno 16 44 1011 vento: Nord N 25.9